Time;durP1;ratioP1;P1;durP2;ratioP2;P2;SDS_P1;SDS_P2;PMS_P1;PMS_P2;Temp;Humidity;BMP_temperature;BMP_pressure;BME280_temperature;BME280_humidity;BME280_pressure;Samples;Min_cycle;Max_cycle;Signal;HPM_P1;HPM_P2
2023/03/16 00:00:20;;;;;;;8.20;3.57;;;;;;;17.49;51.45;100714.84;5112241;27;20181;-62
2023/03/16 00:02:45;;;;;;;6.30;3.43;;;;;;;17.44;51.80;100715.97;5109592;28;20644;-63
2023/03/16 00:05:11;;;;;;;7.50;3.47;;;;;;;17.48;51.21;100708.34;5109493;28;20447;-62
2023/03/16 00:07:37;;;;;;;8.80;3.87;;;;;;;17.45;51.58;100711.91;5108685;28;20193;-62
2023/03/16 00:10:03;;;;;;;8.87;3.73;;;;;;;17.47;51.66;100708.69;5108736;28;20477;-62
2023/03/16 00:12:28;;;;;;;8.70;3.90;;;;;;;17.45;51.89;100705.38;5109664;28;20268;-63
2023/03/16 00:14:54;;;;;;;7.63;3.20;;;;;;;17.43;51.72;100705.75;5109180;28;20166;-63
2023/03/16 00:17:20;;;;;;;10.00;3.63;;;;;;;17.42;51.79;100704.09;5108971;28;20212;-62
2023/03/16 00:19:56;;;;;;;9.10;4.23;;;;;;;17.42;51.50;100712.66;5112197;27;20455;-62
2023/03/16 00:22:25;;;;;;;7.93;3.40;;;;;;;17.42;51.41;100715.50;5109776;28;20169;-62
2023/03/16 00:24:54;;;;;;;7.30;3.50;;;;;;;17.43;51.75;100714.31;5121998;27;20463;-63
2023/03/16 00:27:21;;;;;;;12.63;2.90;;;;;;;17.41;51.58;100716.66;5113043;27;21220;-62
2023/03/16 00:29:47;;;;;;;5.90;3.20;;;;;;;17.42;51.73;100714.66;5112408;27;20434;-63
2023/03/16 00:32:17;;;;;;;5.87;3.40;;;;;;;17.38;52.06;100714.53;5108914;28;20455;-63
2023/03/16 00:34:43;;;;;;;7.73;3.70;;;;;;;17.40;52.20;100709.31;5108982;28;20196;-62
2023/03/16 00:37:09;;;;;;;8.37;3.20;;;;;;;17.38;52.17;100707.97;5110613;28;20399;-62
2023/03/16 00:39:34;;;;;;;6.07;3.17;;;;;;;17.37;52.37;100707.16;5109996;28;21215;-62
2023/03/16 00:42:01;;;;;;;8.03;3.40;;;;;;;17.37;51.99;100712.03;5108870;28;20178;-62
2023/03/16 00:44:26;;;;;;;7.20;3.60;;;;;;;17.37;51.91;100703.47;5109748;28;20245;-62
2023/03/16 00:46:52;;;;;;;6.27;3.10;;;;;;;17.36;52.07;100691.22;5109456;28;20435;-63
2023/03/16 00:49:17;;;;;;;6.90;3.10;;;;;;;17.31;52.06;100694.31;5110039;28;20263;-63
2023/03/16 00:51:45;;;;;;;8.00;3.33;;;;;;;17.31;52.49;100694.31;5109503;28;20318;-63
2023/03/16 00:54:11;;;;;;;7.80;3.10;;;;;;;17.35;51.83;100685.91;5109032;28;20213;-62
2023/03/16 00:56:37;;;;;;;8.50;3.63;;;;;;;17.35;52.19;100688.75;5109407;28;20427;-63
2023/03/16 00:59:04;;;;;;;6.20;3.30;;;;;;;17.31;52.36;100684.97;5109129;28;20930;-63
2023/03/16 01:01:31;;;;;;;5.50;2.90;;;;;;;17.29;52.30;100696.72;5108743;28;20530;-62
2023/03/16 01:03:58;;;;;;;5.63;2.93;;;;;;;17.35;52.34;100683.84;5107762;28;20546;-63
2023/03/16 01:06:24;;;;;;;7.47;3.57;;;;;;;17.31;52.29;100691.47;5109067;28;20415;-62
2023/03/16 01:08:51;;;;;;;11.47;3.90;;;;;;;17.33;52.22;100686.25;5108362;28;20434;-62
2023/03/16 01:11:18;;;;;;;9.10;3.17;;;;;;;17.32;52.36;100695.16;5088326;28;20804;-63
2023/03/16 01:13:43;;;;;;;5.97;2.57;;;;;;;17.36;52.08;100696.91;5088262;28;21062;-62
2023/03/16 01:16:09;;;;;;;5.47;3.10;;;;;;;17.42;52.15;100689.81;5105834;28;20443;-62
2023/03/16 01:18:34;;;;;;;8.93;3.13;;;;;;;17.36;51.90;100688.34;5109651;28;20174;-62
2023/03/16 01:21:07;;;;;;;8.63;3.00;;;;;;;17.37;52.30;100687.19;5108584;28;20552;-62
2023/03/16 01:23:33;;;;;;;5.10;2.60;;;;;;;17.35;52.57;100683.03;5109335;28;20193;-62
2023/03/16 01:25:59;;;;;;;5.70;3.10;;;;;;;17.36;52.34;100687.56;5109566;28;20415;-63
2023/03/16 01:28:25;;;;;;;4.67;2.47;;;;;;;17.37;52.25;100677.78;5108984;28;20200;-62
2023/03/16 01:30:56;;;;;;;6.53;2.97;;;;;;;17.37;51.86;100681.47;5109438;28;20177;-63
2023/03/16 01:33:22;;;;;;;5.33;2.47;;;;;;;17.33;52.22;100671.97;5108643;28;20644;-62
2023/03/16 01:35:55;;;;;;;8.90;2.87;;;;;;;17.35;51.92;100671.63;5109075;28;20412;-63
2023/03/16 01:38:20;;;;;;;4.93;2.70;;;;;;;17.34;52.05;100664.22;5108576;28;21111;-63
2023/03/16 01:40:49;;;;;;;5.23;2.80;;;;;;;17.34;52.55;100656.50;5089772;28;20420;-63
2023/03/16 01:43:15;;;;;;;5.87;3.17;;;;;;;17.32;52.43;100664.63;5092149;28;20158;-63
2023/03/16 01:45:59;;;;;;;5.63;3.10;;;;;;;17.29;52.26;100658.78;5105479;28;20495;-63
2023/03/16 01:48:24;;;;;;;7.23;3.37;;;;;;;17.31;52.48;100660.09;5112910;28;20197;-62
2023/03/16 01:50:51;;;;;;;7.00;2.67;;;;;;;17.30;52.27;100652.72;5113287;27;20509;-62
2023/03/16 01:53:17;;;;;;;5.57;2.63;;;;;;;17.31;52.30;100642.16;5111780;28;20205;-62
2023/03/16 01:55:42;;;;;;;5.77;2.83;;;;;;;17.27;52.19;100646.91;5111482;28;20447;-63
2023/03/16 01:58:08;;;;;;;9.90;2.80;;;;;;;17.32;52.26;100652.38;5112390;28;20200;-63
2023/03/16 02:00:33;;;;;;;5.40;2.80;;;;;;;17.28;52.31;100649.41;5111803;28;20182;-62
2023/03/16 02:03:05;;;;;;;8.03;2.80;;;;;;;17.24;52.44;100654.19;5112207;28;20186;-62
2023/03/16 02:05:41;;;;;;;7.30;3.60;;;;;;;17.26;52.38;100650.97;5099914;28;20206;-63
2023/03/16 02:08:07;;;;;;;6.53;3.40;;;;;;;17.25;52.49;100652.19;5090906;28;20442;-62
2023/03/16 02:10:32;;;;;;;6.57;3.00;;;;;;;17.25;52.30;100647.28;5090650;28;20567;-62
2023/03/16 02:12:58;;;;;;;5.90;2.87;;;;;;;17.22;52.56;100644.34;5111085;28;21311;-63
2023/03/16 02:15:23;;;;;;;7.63;2.97;;;;;;;17.27;52.20;100644.06;5112657;28;20636;-63
2023/03/16 02:17:49;;;;;;;6.60;2.73;;;;;;;17.30;52.27;100649.88;5130487;27;20181;-62
2023/03/16 02:20:36;;;;;;;5.37;2.87;;;;;;;17.25;52.15;100657.88;5124492;27;20905;-62
2023/03/16 02:23:04;;;;;;;5.57;2.73;;;;;;;17.22;52.38;100653.72;5116422;27;20164;-63
2023/03/16 02:25:58;;;;;;;6.27;2.77;;;;;;;17.20;52.41;100650.41;5113485;28;20828;-62
2023/03/16 02:28:48;;;;;;;8.10;2.90;;;;;;;17.23;52.14;100649.69;5111612;28;20419;-62
2023/03/16 02:31:14;;;;;;;6.90;2.93;;;;;;;17.22;52.43;100635.78;5110440;28;20903;-62
2023/03/16 02:33:40;;;;;;;10.23;3.13;;;;;;;17.31;52.13;100637.25;5076735;28;21083;-62
2023/03/16 02:36:06;;;;;;;8.13;2.97;;;;;;;17.34;52.27;100639.41;5109093;28;20435;-62
2023/03/16 02:38:31;;;;;;;4.90;3.03;;;;;;;17.28;52.41;100635.16;5111746;28;20165;-63
2023/03/16 02:41:28;;;;;;;3.80;2.10;;;;;;;17.27;52.37;100638.38;5111222;28;20182;-62
2023/03/16 02:43:57;;;;;;;5.10;2.33;;;;;;;17.27;52.33;100642.06;5092124;28;20240;-63
2023/03/16 02:46:24;;;;;;;5.47;2.90;;;;;;;17.26;52.45;100631.00;5092345;28;20773;-62
2023/03/16 02:48:55;;;;;;;5.93;2.73;;;;;;;17.25;52.43;100630.16;5093897;28;20454;-63
2023/03/16 02:51:21;;;;;;;5.73;2.60;;;;;;;17.26;52.70;100626.09;5111704;28;20439;-63
2023/03/16 02:53:46;;;;;;;6.20;2.83;;;;;;;17.23;52.67;100626.84;5109971;27;20539;-62
2023/03/16 02:56:11;;;;;;;5.70;3.37;;;;;;;17.24;52.60;100628.50;5110883;28;20169;-62
2023/03/16 02:58:37;;;;;;;5.30;2.40;;;;;;;17.23;52.74;100629.72;5110909;28;20609;-62
2023/03/16 03:01:02;;;;;;;3.33;2.43;;;;;;;17.24;52.40;100627.66;5111111;28;20636;-63
2023/03/16 03:03:28;;;;;;;6.63;2.63;;;;;;;17.22;52.75;100625.19;5109666;28;20182;-62
2023/03/16 03:05:53;;;;;;;3.13;1.93;;;;;;;17.20;52.75;100619.00;5093626;28;20202;-62
2023/03/16 03:08:22;;;;;;;6.53;2.00;;;;;;;17.23;52.51;100618.28;5089738;28;20178;-62
2023/03/16 03:10:48;;;;;;;5.20;2.57;;;;;;;17.22;52.59;100607.25;5107836;28;20269;-62
2023/03/16 03:13:13;;;;;;;4.43;2.70;;;;;;;17.20;52.44;100603.94;5110164;28;20486;-62
2023/03/16 03:15:39;;;;;;;5.47;3.37;;;;;;;17.21;52.67;100600.69;5110416;27;20166;-63
2023/03/16 03:18:05;;;;;;;3.93;2.60;;;;;;;17.23;53.04;100598.31;5109914;28;20186;-62
2023/03/16 03:20:30;;;;;;;4.83;2.30;;;;;;;17.22;52.48;100598.69;5111195;28;20206;-63
2023/03/16 03:22:55;;;;;;;4.03;2.60;;;;;;;17.19;52.62;100596.53;5109896;28;20186;-62
2023/03/16 03:25:21;;;;;;;7.33;3.30;;;;;;;17.20;52.37;100595.38;5110983;28;20173;-63
2023/03/16 03:27:47;;;;;;;4.70;2.60;;;;;;;17.21;52.53;100595.00;5110933;28;20244;-62
2023/03/16 03:30:14;;;;;;;3.50;2.13;;;;;;;17.18;52.50;100590.03;5110417;28;20246;-63
2023/03/16 03:32:40;;;;;;;4.30;2.70;;;;;;;17.24;52.41;100593.44;5110685;28;20554;-62
2023/03/16 03:35:06;;;;;;;5.50;2.57;;;;;;;17.25;52.23;100595.91;5108689;28;20438;-63
2023/03/16 03:37:31;;;;;;;7.50;2.60;;;;;;;17.16;52.65;100591.59;5108957;28;20182;-62
2023/03/16 03:39:57;;;;;;;4.03;2.23;;;;;;;17.18;52.48;100586.34;5109828;28;20178;-62
2023/03/16 03:42:22;;;;;;;5.60;2.90;;;;;;;17.20;52.76;100576.22;5111544;27;20181;-62
2023/03/16 03:44:51;;;;;;;5.50;2.33;;;;;;;17.18;52.55;100590.03;5110430;28;20174;-62
2023/03/16 03:47:17;;;;;;;3.70;2.00;;;;;;;17.18;52.61;100590.03;5110554;28;20213;-62
2023/03/16 03:49:43;;;;;;;4.17;2.23;;;;;;;17.15;52.72;100585.03;5110104;28;20531;-62
2023/03/16 03:52:08;;;;;;;4.53;2.20;;;;;;;17.18;52.79;100587.19;5110308;28;20451;-62
2023/03/16 03:54:34;;;;;;;5.10;2.63;;;;;;;17.22;52.77;100581.56;5109685;28;20224;-62
2023/03/16 03:56:59;;;;;;;5.23;2.27;;;;;;;17.24;52.80;100577.16;5108772;28;20181;-63
2023/03/16 03:59:25;;;;;;;3.60;2.23;;;;;;;17.22;52.43;100579.56;5110484;28;20206;-62
2023/03/16 04:01:52;;;;;;;3.70;1.90;;;;;;;17.24;52.87;100570.59;5109622;28;20173;-62
2023/03/16 04:04:18;;;;;;;4.57;2.27;;;;;;;17.20;52.71;100572.56;5107550;28;20443;-63
2023/03/16 04:06:43;;;;;;;5.47;2.87;;;;;;;17.21;52.47;100580.72;5089730;28;20532;-63
2023/03/16 04:09:10;;;;;;;4.63;2.37;;;;;;;17.21;52.69;100582.75;5093525;28;20191;-63
2023/03/16 04:11:35;;;;;;;4.23;2.60;;;;;;;17.20;52.77;100586.81;5112929;27;20181;-62
2023/03/16 04:14:01;;;;;;;5.97;2.80;;;;;;;17.19;52.75;100585.97;5109837;28;20479;-62
2023/03/16 04:16:26;;;;;;;4.47;2.40;;;;;;;17.20;52.70;100589.66;5108551;28;20193;-62
2023/03/16 04:18:53;;;;;;;4.83;2.30;;;;;;;17.18;52.59;100578.63;5111936;27;20177;-62
2023/03/16 04:21:18;;;;;;;4.40;2.43;;;;;;;17.18;52.78;100575.75;5108676;28;20182;-61
2023/03/16 04:23:44;;;;;;;6.23;2.27;;;;;;;17.18;52.61;100578.63;5109870;28;20438;-63
2023/03/16 04:26:09;;;;;;;4.90;2.70;;;;;;;17.19;52.84;100582.28;5109415;28;20222;-62
2023/03/16 04:28:35;;;;;;;5.00;2.37;;;;;;;17.18;52.84;100572.06;5109405;28;20545;-62
2023/03/16 04:31:05;;;;;;;5.43;2.53;;;;;;;17.17;52.87;100582.66;5116055;28;20177;-62
2023/03/16 04:33:31;;;;;;;4.73;2.63;;;;;;;17.17;52.56;100571.25;5109081;28;20205;-62
2023/03/16 04:35:57;;;;;;;4.20;1.93;;;;;;;17.16;53.01;100580.19;5109971;28;20415;-62
2023/03/16 04:38:22;;;;;;;4.87;2.67;;;;;;;17.16;52.54;100580.19;5107758;28;20499;-63
2023/03/16 04:40:48;;;;;;;3.70;2.43;;;;;;;17.12;52.90;100576.38;5109814;28;20177;-62
2023/03/16 04:43:13;;;;;;;3.93;2.10;;;;;;;17.14;52.71;100574.81;5110031;28;20158;-62
2023/03/16 04:45:40;;;;;;;4.03;2.13;;;;;;;17.10;52.71;100570.22;5109116;28;20189;-62
2023/03/16 04:48:05;;;;;;;5.30;2.70;;;;;;;17.14;52.87;100574.81;5109640;28;20762;-62
2023/03/16 04:50:31;;;;;;;4.00;2.30;;;;;;;17.12;52.68;100568.66;5108644;28;20443;-62
2023/03/16 04:52:56;;;;;;;3.57;1.97;;;;;;;17.11;52.80;100571.88;5109564;28;20205;-62
2023/03/16 04:55:21;;;;;;;5.40;2.70;;;;;;;17.09;52.70;100569.38;5110013;28;20182;-62
2023/03/16 04:57:47;;;;;;;4.13;2.27;;;;;;;17.14;52.57;100569.13;5108868;28;20709;-62
2023/03/16 05:00:19;;;;;;;4.30;2.30;;;;;;;17.16;52.74;100577.31;5109675;28;20178;-62
2023/03/16 05:02:48;;;;;;;6.17;2.57;;;;;;;17.15;52.60;100572.81;5109022;28;20224;-62
2023/03/16 05:05:14;;;;;;;5.20;2.33;;;;;;;17.15;52.41;100570.78;5109717;28;20560;-63
2023/03/16 05:07:40;;;;;;;3.80;1.97;;;;;;;17.13;52.84;100575.19;5109710;28;20399;-63
2023/03/16 05:10:07;;;;;;;5.27;2.77;;;;;;;17.13;52.70;100567.47;5108823;28;20194;-62
2023/03/16 05:12:33;;;;;;;5.93;2.33;;;;;;;17.12;52.65;100565.81;5109248;28;20478;-61
2023/03/16 05:14:58;;;;;;;4.33;2.30;;;;;;;17.18;52.57;100566.38;5108949;28;20464;-62
2023/03/16 05:17:24;;;;;;;4.63;2.37;;;;;;;17.18;52.65;100572.06;5111413;28;20617;-61
2023/03/16 05:19:49;;;;;;;4.60;2.40;;;;;;;17.20;52.35;100567.66;5113132;28;20166;-63
2023/03/16 05:22:15;;;;;;;4.33;2.07;;;;;;;17.16;52.64;100561.00;5112389;28;20231;-63
2023/03/16 05:24:40;;;;;;;4.17;2.20;;;;;;;17.20;52.90;100567.66;5113465;28;20162;-62
2023/03/16 05:27:06;;;;;;;3.50;2.13;;;;;;;17.16;52.95;100569.56;5112851;28;20185;-62
2023/03/16 05:29:31;;;;;;;3.80;2.70;;;;;;;17.14;52.91;100563.41;5113356;28;20166;-62
2023/03/16 05:31:58;;;;;;;3.80;2.10;;;;;;;17.14;52.62;100545.47;5104142;28;20182;-62
2023/03/16 05:34:23;;;;;;;5.57;2.50;;;;;;;17.15;52.79;100555.69;5111843;27;20190;-63
2023/03/16 05:36:49;;;;;;;3.93;2.40;;;;;;;17.15;52.55;100558.56;5110966;28;20415;-62
2023/03/16 05:39:14;;;;;;;3.40;2.13;;;;;;;17.13;52.58;100564.63;5112229;28;20180;-63
2023/03/16 05:41:40;;;;;;;4.50;2.50;;;;;;;17.13;53.02;100564.63;5110087;28;20186;-62
2023/03/16 05:44:05;;;;;;;4.10;2.57;;;;;;;17.11;52.85;100552.72;5112213;27;20174;-62
2023/03/16 05:46:30;;;;;;;3.60;2.07;;;;;;;17.12;52.69;100568.66;5109924;27;20581;-62
2023/03/16 05:48:56;;;;;;;4.43;2.47;;;;;;;17.07;52.96;100568.94;5112005;27;20185;-63
2023/03/16 05:51:21;;;;;;;3.23;2.17;;;;;;;17.10;52.70;100571.03;5112017;28;20172;-62
2023/03/16 05:53:47;;;;;;;4.57;2.43;;;;;;;17.11;52.62;100569.84;5111234;28;20220;-62
2023/03/16 05:56:13;;;;;;;2.90;1.90;;;;;;;17.09;52.86;100568.53;5108016;28;20178;-62
2023/03/16 05:58:38;;;;;;;3.90;2.30;;;;;;;17.10;52.44;100559.63;5111337;28;20185;-62
2023/03/16 06:01:05;;;;;;;4.37;2.40;;;;;;;17.10;53.02;100559.63;5111983;28;20184;-62
2023/03/16 06:03:30;;;;;;;3.93;2.40;;;;;;;17.01;52.81;100558.97;5111693;28;20181;-62
2023/03/16 06:05:56;;;;;;;2.87;2.10;;;;;;;17.10;52.73;100562.47;5113235;27;20419;-62
2023/03/16 06:08:21;;;;;;;4.23;2.27;;;;;;;17.14;52.44;100560.56;5111518;28;20252;-63
2023/03/16 06:10:47;;;;;;;3.03;1.83;;;;;;;17.10;52.71;100570.22;5112066;28;20185;-62
2023/03/16 06:13:12;;;;;;;4.33;2.60;;;;;;;17.05;52.71;100568.47;5111359;28;20225;-62
2023/03/16 06:15:38;;;;;;;4.30;2.50;;;;;;;17.10;52.41;100575.94;5112121;28;20172;-62
2023/03/16 06:18:03;;;;;;;3.73;2.00;;;;;;;17.12;52.52;100564.97;5111493;28;20192;-61
2023/03/16 06:20:29;;;;;;;3.63;2.30;;;;;;;17.13;52.63;100569.47;5114078;27;20189;-62
2023/03/16 06:22:54;;;;;;;3.27;2.10;;;;;;;17.11;52.57;100561.28;5110143;28;20170;-62
2023/03/16 06:25:19;;;;;;;3.63;2.33;;;;;;;17.10;52.73;100571.03;5111695;28;20162;-61
2023/03/16 06:27:45;;;;;;;3.93;2.10;;;;;;;17.08;52.60;100573.44;5108910;28;20186;-61
2023/03/16 06:30:12;;;;;;;3.00;2.07;;;;;;;17.07;52.58;100574.66;5111399;28;20222;-62
2023/03/16 06:32:41;;;;;;;4.60;3.23;;;;;;;17.11;52.68;100575.53;5111562;28;20535;-62
2023/03/16 06:35:08;;;;;;;4.03;2.33;;;;;;;17.16;52.44;100583.84;5111305;28;20522;-62
2023/03/16 06:37:33;;;;;;;3.27;1.93;;;;;;;17.20;52.51;100575.41;5112149;28;20465;-62
2023/03/16 06:39:59;;;;;;;3.80;2.30;;;;;;;17.11;52.86;100584.09;5111143;28;20440;-63
2023/03/16 06:42:24;;;;;;;4.03;2.33;;;;;;;17.14;52.65;100583.38;5111882;28;20174;-62
2023/03/16 06:44:51;;;;;;;2.30;1.70;;;;;;;17.14;52.82;100577.69;5111961;28;20169;-62
2023/03/16 06:47:17;;;;;;;5.83;2.63;;;;;;;17.14;52.52;100571.97;5111439;28;20182;-62
2023/03/16 06:49:42;;;;;;;3.67;2.13;;;;;;;17.16;52.54;100580.19;5111891;28;20439;-63
2023/03/16 06:52:09;;;;;;;5.47;2.37;;;;;;;17.14;52.60;100583.38;5110629;28;20181;-62
2023/03/16 06:54:36;;;;;;;4.30;2.30;;;;;;;17.13;52.52;100586.59;5110983;28;20185;-62
2023/03/16 06:57:02;;;;;;;5.20;2.53;;;;;;;17.12;52.74;100580.09;5111641;27;20420;-62
2023/03/16 06:59:27;;;;;;;3.90;2.20;;;;;;;17.13;52.46;100593.16;5111466;28;20430;-62
2023/03/16 07:01:53;;;;;;;4.60;1.90;;;;;;;17.12;52.71;100591.50;5107050;28;20243;-60
2023/03/16 07:04:18;;;;;;;9.90;7.40;;;;;;;16.58;46.26;100581.72;5103959;28;20198;-62
2023/03/16 07:06:44;;;;;;;12.60;8.43;;;;;;;16.03;43.71;100584.44;5107548;28;20177;-61
2023/03/16 07:09:11;;;;;;;18.70;10.47;;;;;;;16.30;45.29;100577.16;5107935;28;20665;-62
2023/03/16 07:11:37;;;;;;;20.63;11.80;;;;;;;17.21;45.55;100579.91;5106767;28;20648;-61
2023/03/16 07:14:02;;;;;;;15.83;9.40;;;;;;;17.58;45.18;100578.50;5109146;28;20528;-62
2023/03/16 07:16:28;;;;;;;13.93;8.97;;;;;;;18.04;45.54;100555.63;5105452;28;20185;-62
2023/03/16 07:18:53;;;;;;;14.70;9.57;;;;;;;18.49;45.44;100564.47;5108480;28;20173;-62
2023/03/16 07:21:18;;;;;;;14.17;8.00;;;;;;;18.68;45.09;100564.50;5108271;28;20182;-62
2023/03/16 07:23:44;;;;;;;14.73;9.40;;;;;;;18.76;45.67;100574.88;5108064;28;20174;-62
2023/03/16 07:26:10;;;;;;;13.53;7.50;;;;;;;18.88;45.57;100566.16;5106218;28;20644;-62
2023/03/16 07:28:37;;;;;;;11.93;6.90;;;;;;;18.98;46.12;100571.28;5107628;28;20176;-61
2023/03/16 07:31:03;;;;;;;11.90;6.37;;;;;;;19.02;46.34;100566.41;5099897;28;20562;-62
2023/03/16 07:33:29;;;;;;;17.53;6.93;;;;;;;19.13;46.44;100560.94;5102194;28;20478;-62
2023/03/16 07:35:54;;;;;;;15.73;6.20;;;;;;;18.63;47.43;100564.78;5106633;28;20981;-62
2023/03/16 07:38:20;;;;;;;9.00;5.50;;;;;;;18.42;47.54;100552.06;5108127;28;20189;-63
2023/03/16 07:40:46;;;;;;;15.23;6.67;;;;;;;18.37;48.30;100558.06;5107224;27;20303;-63
2023/03/16 07:43:12;;;;;;;10.90;6.27;;;;;;;18.75;48.44;100558.91;5108102;28;21418;-63
2023/03/16 07:45:37;;;;;;;9.87;5.87;;;;;;;18.87;48.43;100555.91;5102899;28;20182;-63
2023/03/16 07:48:02;;;;;;;12.77;6.00;;;;;;;18.81;49.15;100554.53;5089328;28;20178;-62
2023/03/16 07:50:28;;;;;;;7.80;4.97;;;;;;;18.57;49.52;100556.88;5105946;28;20645;-62
2023/03/16 07:52:53;;;;;;;8.77;5.10;;;;;;;18.25;50.14;100555.28;5104091;28;20219;-62
2023/03/16 07:55:19;;;;;;;13.03;5.50;;;;;;;18.28;50.62;100548.84;5105833;28;20524;-62
2023/03/16 07:57:47;;;;;;;9.67;5.90;;;;;;;18.20;51.14;100547.84;5109158;28;20158;-63
2023/03/16 08:00:15;;;;;;;13.67;5.30;;;;;;;18.19;51.24;100551.91;5109096;28;20177;-62
2023/03/16 08:02:41;;;;;;;8.77;4.53;;;;;;;18.16;51.02;100552.63;5107036;28;20522;-62
2023/03/16 08:05:09;;;;;;;8.70;5.07;;;;;;;18.00;50.78;100548.16;5097350;28;20951;-61
2023/03/16 08:07:34;;;;;;;8.73;4.70;;;;;;;17.89;50.49;100547.91;5096640;27;20179;-62
2023/03/16 08:10:00;;;;;;;9.23;5.10;;;;;;;17.93;49.53;100550.84;5108161;28;20842;-62
2023/03/16 08:12:25;;;;;;;8.37;4.57;;;;;;;17.88;49.66;100545.41;5107800;28;20233;-62
2023/03/16 08:14:51;;;;;;;11.50;5.60;;;;;;;17.78;49.23;100546.81;5105605;28;20729;-62
2023/03/16 08:17:16;;;;;;;11.93;4.77;;;;;;;17.76;49.22;100534.91;5109284;28;20184;-63
2023/03/16 08:19:42;;;;;;;11.13;5.13;;;;;;;17.78;49.10;100531.69;5108786;28;20182;-63
2023/03/16 08:22:07;;;;;;;7.70;4.30;;;;;;;17.71;49.43;100535.19;5109199;28;20289;-63
2023/03/16 08:24:33;;;;;;;9.00;4.37;;;;;;;17.66;49.58;100538.34;5108627;28;20189;-62
2023/03/16 08:26:58;;;;;;;13.00;5.50;;;;;;;17.63;49.43;100550.53;5110007;27;20178;-62
2023/03/16 08:29:25;;;;;;;11.70;5.20;;;;;;;17.63;49.55;100556.22;5107949;28;20188;-62
2023/03/16 08:31:55;;;;;;;9.10;5.00;;;;;;;17.61;49.99;100563.50;5105851;28;20184;-61
2023/03/16 08:34:21;;;;;;;9.53;5.33;;;;;;;17.58;50.52;100553.66;5102603;28;20448;-62
2023/03/16 08:36:46;;;;;;;9.73;5.13;;;;;;;17.62;49.52;100551.72;5093832;28;20412;-62
2023/03/16 08:39:12;;;;;;;19.87;5.33;;;;;;;17.59;49.92;100548.75;5108502;28;20876;-62
2023/03/16 08:41:39;;;;;;;8.00;4.37;;;;;;;17.58;50.28;100559.34;5108190;28;20189;-62
2023/03/16 08:44:06;;;;;;;9.90;4.90;;;;;;;17.54;50.26;100561.28;5109271;28;20556;-63
2023/03/16 08:46:33;;;;;;;12.13;5.17;;;;;;;17.54;50.28;100557.59;5109157;28;20423;-62
2023/03/16 08:48:58;;;;;;;12.90;4.80;;;;;;;17.48;50.41;100553.34;5107296;28;22046;-62
2023/03/16 08:51:24;;;;;;;12.10;3.90;;;;;;;17.54;50.69;100547.00;5108299;28;20454;-62
2023/03/16 08:53:49;;;;;;;11.00;5.10;;;;;;;17.54;50.76;100535.59;5112039;28;20251;-62
2023/03/16 08:56:15;;;;;;;10.70;4.60;;;;;;;17.57;50.75;100529.16;5111382;28;20196;-62
2023/03/16 08:58:44;;;;;;;8.73;4.20;;;;;;;17.57;50.79;100516.91;5111810;28;20166;-62
2023/03/16 09:01:11;;;;;;;10.93;3.80;;;;;;;17.55;50.83;100533.59;5110717;28;20182;-62
2023/03/16 09:03:36;;;;;;;9.67;4.53;;;;;;;17.56;51.07;100530.34;5112792;27;20414;-62
2023/03/16 09:06:05;;;;;;;8.50;4.47;;;;;;;17.57;50.66;100526.31;5111990;28;20435;-62
2023/03/16 09:08:31;;;;;;;11.10;3.57;;;;;;;17.55;51.22;100525.81;5113507;28;20641;-62
2023/03/16 09:11:04;;;;;;;8.90;4.03;;;;;;;17.49;51.16;100527.31;5111867;28;20440;-61
2023/03/16 09:13:30;;;;;;;6.33;3.97;;;;;;;17.47;51.40;100526.88;5112523;28;20360;-62
2023/03/16 09:15:56;;;;;;;8.00;4.47;;;;;;;17.49;50.90;100517.91;5113323;28;20437;-62
2023/03/16 09:18:24;;;;;;;9.70;4.00;;;;;;;17.47;51.38;100509.72;5112779;28;20418;-62
2023/03/16 09:20:50;;;;;;;8.90;4.47;;;;;;;17.50;51.34;100503.28;5113029;28;21188;-62
2023/03/16 09:23:17;;;;;;;9.57;4.60;;;;;;;17.50;51.38;100514.69;5112815;28;20400;-62
2023/03/16 09:25:42;;;;;;;8.37;4.13;;;;;;;17.43;51.33;100520.22;5111853;28;20227;-62
2023/03/16 09:28:08;;;;;;;9.60;4.40;;;;;;;17.43;51.67;100522.25;5112723;28;20813;-62
2023/03/16 09:30:33;;;;;;;9.03;3.70;;;;;;;17.54;51.28;100512.75;5110302;28;20557;-62
2023/03/16 09:32:59;;;;;;;6.90;4.00;;;;;;;17.54;51.31;100507.06;5103056;28;20202;-62
2023/03/16 09:35:25;;;;;;;8.40;3.60;;;;;;;17.50;51.59;100506.13;5108796;28;20181;-62
2023/03/16 09:37:51;;;;;;;8.07;3.73;;;;;;;17.50;51.79;100503.28;5112309;28;20255;-62
2023/03/16 09:40:27;;;;;;;7.70;3.50;;;;;;;17.50;51.71;100502.47;5112757;28;20970;-62
2023/03/16 09:43:29;;;;;;;7.60;3.90;;;;;;;17.48;51.62;100508.53;5112156;28;20797;-62
2023/03/16 09:46:04;;;;;;;7.90;3.77;;;;;;;17.50;51.65;100513.88;5110116;27;20430;-62
2023/03/16 09:48:30;;;;;;;7.90;4.17;;;;;;;17.47;51.81;100506.88;5111361;28;20407;-62
2023/03/16 09:50:55;;;;;;;5.40;3.27;;;;;;;17.47;51.76;100501.16;5109825;28;20439;-62
2023/03/16 09:53:29;;;;;;;6.63;3.10;;;;;;;17.45;51.98;100505.59;5110454;28;20941;-62
2023/03/16 09:56:08;;;;;;;6.47;3.87;;;;;;;17.45;51.88;100503.53;5110042;28;20182;-62
2023/03/16 09:58:33;;;;;;;10.43;4.07;;;;;;;17.46;51.96;100499.50;5094523;28;20474;-62
2023/03/16 10:01:15;;;;;;;6.27;4.00;;;;;;;17.45;52.44;100491.31;5111427;28;20804;-62
2023/03/16 10:03:49;;;;;;;4.30;3.17;;;;;;;17.45;52.34;100480.72;5113781;27;20178;-62
2023/03/16 10:06:15;;;;;;;8.27;3.77;;;;;;;17.44;52.13;100481.91;5110824;28;20427;-62
2023/03/16 10:08:49;;;;;;;8.67;4.00;;;;;;;17.42;52.05;100481.47;5112530;28;20416;-62
2023/03/16 10:11:38;;;;;;;8.07;4.10;;;;;;;17.43;52.19;100476.56;5111649;28;20213;-62
2023/03/16 10:14:41;;;;;;;6.40;3.60;;;;;;;17.42;52.16;100474.91;5110857;28;20483;-62
2023/03/16 10:17:16;;;;;;;6.20;3.60;;;;;;;17.45;52.63;100477.06;5058762;27;20434;-62
2023/03/16 10:19:53;;;;;;;8.63;3.77;;;;;;;17.43;52.45;100470.88;5111671;28;20459;-62
2023/03/16 10:22:25;;;;;;;8.80;3.37;;;;;;;17.43;52.28;100463.16;5108753;28;20443;-62
2023/03/16 10:25:11;;;;;;;6.43;3.53;;;;;;;17.45;52.44;100462.78;5114793;27;20534;-62
2023/03/16 10:27:38;;;;;;;9.73;3.93;;;;;;;17.41;52.40;100459.81;5110993;28;20404;-62
2023/03/16 10:30:17;;;;;;;6.90;4.70;;;;;;;17.39;52.15;100453.66;5113281;27;20434;-61
2023/03/16 10:32:43;;;;;;;9.73;3.20;;;;;;;17.38;52.39;100451.13;5099778;28;20926;-62
2023/03/16 10:35:37;;;;;;;5.80;3.20;;;;;;;17.40;52.34;100446.75;5110570;28;20438;-62
2023/03/16 10:38:02;;;;;;;6.60;3.50;;;;;;;17.37;52.18;100444.63;5093841;28;20251;-62
2023/03/16 10:40:32;;;;;;;10.43;3.30;;;;;;;17.38;52.41;100451.97;5109999;28;21140;-62
2023/03/16 10:43:10;;;;;;;5.90;3.27;;;;;;;17.36;52.59;100451.50;5109626;28;20241;-61
2023/03/16 10:45:36;;;;;;;9.23;3.63;;;;;;;17.38;52.71;100445.44;5091738;28;21156;-62
2023/03/16 10:48:12;;;;;;;4.77;2.80;;;;;;;17.38;52.67;100443.41;5090446;28;20412;-62
2023/03/16 10:50:38;;;;;;;6.83;3.70;;;;;;;17.37;52.39;100450.31;5073070;28;20952;-61
2023/03/16 10:53:03;;;;;;;6.50;3.40;;;;;;;17.46;52.52;100441.59;5104805;28;20467;-61
2023/03/16 10:55:32;;;;;;;6.67;3.57;;;;;;;17.55;52.53;100453.66;5110598;28;20184;-62
2023/03/16 10:57:58;;;;;;;6.57;3.57;;;;;;;17.49;52.77;100452.25;5097339;28;20181;-62
2023/03/16 11:00:34;;;;;;;4.93;2.80;;;;;;;17.47;52.74;100446.94;5110189;28;20423;-62
2023/03/16 11:03:01;;;;;;;6.00;3.20;;;;;;;17.46;52.31;100441.59;5109481;28;20229;-62
2023/03/16 11:05:31;;;;;;;6.13;3.33;;;;;;;17.46;52.82;100439.56;5088735;28;20444;-62
2023/03/16 11:08:01;;;;;;;6.27;3.40;;;;;;;17.48;52.84;100430.63;5105319;28;20523;-62
2023/03/16 11:10:32;;;;;;;7.70;3.40;;;;;;;17.47;52.38;100426.97;5109439;28;20495;-63
2023/03/16 11:13:16;;;;;;;8.53;3.60;;;;;;;17.47;52.92;100421.25;5108546;28;20471;-62
2023/03/16 11:15:54;;;;;;;6.00;3.50;;;;;;;17.45;52.89;100429.34;5092800;28;20906;-63
2023/03/16 11:18:37;;;;;;;5.97;3.23;;;;;;;17.43;52.94;100428.91;5096395;28;20562;-62
2023/03/16 11:21:40;;;;;;;5.77;3.20;;;;;;;17.43;52.41;100426.03;5093593;28;20507;-61
2023/03/16 11:24:14;;;;;;;8.83;3.67;;;;;;;17.31;51.93;100417.53;5110005;28;20969;-62
2023/03/16 11:26:41;;;;;;;14.20;4.77;;;;;;;17.30;50.54;100418.75;5105369;28;20482;-62